Masset Airport
CZMT : now visible

Airfield :











YOU CAN JOIN US ON...

 
LOGIN :

Register | Disclaimer

   EN    FR    IT 

 









Legend :    VFR   Marginal VFR   IFR   Intensive IFR   Very Intensive IFR
Visi :
Ceiling :
>= 8 km
>= 3000ft
5 to 8 km
1000 to 3000 ft
1500m to 5 km
500 to 1000 ft
800 to 1500m
200 to 500 ft
< 800m
< 200 ft
Symbols :   Thunderstorms  Fog  Heavy snow  Heavy precipitations  Wind > 20 kt






- Airport Elevation : 25 ft
- IATA code : ZMT


CZMT - Masset

CURRENT METAR :
  • 172300Z 36004KT 330V030 15SM -RA FEW003 BKN020 OVC030 11/11 A3013 RMK ST2SC3SC3 VIS S 1 BR SLP204

EXPIRED METARs :
  • 172249Z 36006KT 12SM -RA SCT004 BKN012 OVC030 11/11 A3013 RMK ST3SC4SC1 VIS S 1 BR SLP203
  • 172239Z 34007KT 310V010 1 1/2SM -RA BR SCT004 OVC015 11/11 A3012 RMK ST4SC4 SLP202
  • 172232Z VRB02KT 12SM -RA FEW006 SCT015 OVC020 12/12 A3012 RMK SF1SC3SC4 VIS SE-S 11/2 BR SLP201
  • 172223Z 31003KT 290V350 1 1/4SM -RA BR FEW005 SCT015 OVC020 12/12 A3012 RMK CF1SC3SC4 SLP202
  • 172200Z 31004KT 2 1/2SM -RA BR FEW008 SCT015 OVC020 12/12 A3012 RMK SF1SC3SC4 VIS HIER SE SLP200
  • 172145Z 26004KT 160V330 2SM -RA BR FEW005 OVC012 12/12 A3012 RMK SF1SC7 SLP200
  • 172133Z 21005KT 160V230 10SM -RA FEW004 OVC014 13/12 A3011 RMK SF1SC7 SLP198
  • 172107Z 17009KT 140V210 1 1/2SM -RA BR FEW005 SCT012 OVC020 13/13 A3010 RMK CF1SC3SC4 SLP196
  • 172051Z 16006KT 15SM -DZ FEW004 SCT015 OVC020 13/12 A3010 RMK SF1ST4ST4 SF TR SLP196
  • 172044Z 16007KT 15SM -RA FEW005 SCT015 OVC020 13/12 A3010 RMK CF1SC3SC5 CF TR VIS SE-S 2 BR SLP196
  • 172039Z 16006KT 15SM -DZ FEW005 FEW012 BKN020 13/12 A3010 RMK SF1ST1ST7 SF TR VIS S 11/2 BR SLP196
  • 172028Z 15004KT 15SM FEW005 SCT014 OVC020 12/12 A3010 RMK SF1SC4SC4 SF TR SLP196

TAF AMD TAF CZMT
Valid from the 17 at 22:00 until the 18 at 00:00 UTC


172226Z 1722/1724 VRB03KT P6SM SCT012 OVC030
TEMPO 1722/1724 11/4SM -RA BR OVC012 RMK NXT FCST WILL BE ISSUED AT 181415Z
CZVR FIR / North America



MET'MAP, your aeronautical weather chart ! - Copyright ORBIFLY December 2007 - Disclaimer

ORBIFLY MET'MAP TEAM :

Programming & Development : Alexandra Zaïnal
Concept & original design : Baudouin d'Aumeries
Assistance for programming : Marc-Olivier Méhu
Technical & hardware support : Manuel Goepfert

Contact : metmap@orbifly.com




SOURCES & CREDITS :

   NOAA       Earth
Advisory